Terminal Aerodrome Forecast
Issued by NWS Charleston, SC

Home | Current Version | Previous Version | Text Only | Print | Product List | Glossary On
Versions: 1 2 3 4 5 6 7 8 9 10 11 12 13 14 15 16 17 18 19 20
839
FTUS42 KCHS 071736
TAFCHS
TAF
KCHS 071736Z 0718/0818 34020G28KT P6SM VCSH SCT015 OVC025
     FM072000 33015G22KT P6SM SCT015 BKN050
     FM072300 32012G18KT P6SM SKC
     FM080200 29009KT P6SM SKC
     FM081600 25011KT P6SM FEW250=

USA.gov is the U.S. government's official web portal to all federal, state and local government web resources and services.